logo tempoitalia

Diretta Meteo Johannesburg Tambo Int. Airport, Sud Africalunedì 31 agosto ore 07:00

Mappa
Sereno 11 °C Sereno 24 Ore: T.min 11 T.max 22
Ponente Nord Km/h 11.1 Punto di rugiada: 0 °C Umidità: 46% Visibilità: 10 Km
Il sole sorge alle: 06:20 Il sole tramonta alle: 17:54
31 Agosto 2026 07:00 tempo osservato: Sereno Sereno 11 46 1028 vento: Nord N 11.1
31 Agosto 2026 06:30 tempo osservato: Sereno Sereno 13 40 1027 vento: Nord N 16.7
31 Agosto 2026 06:00 tempo osservato: Sereno Sereno 12 40 1027 vento: Nord N/NE 11.1
31 Agosto 2026 05:00 tempo osservato: Sereno Sereno 14 35 1027 vento: Nord N/NO 14.8
31 Agosto 2026 04:30 tempo osservato: Sereno Sereno 14 35 1027 vento: Nord N/NO 13
31 Agosto 2026 04:00 tempo osservato: Sereno Sereno 15 33 1027 vento: Nord N/NO 13
31 Agosto 2026 03:00 tempo osservato: Sereno Sereno 15 35 1027 vento: Nord NO 11.1
31 Agosto 2026 02:00 tempo osservato: Sereno Sereno 15 35 1027 vento: Nord NO 7.4
31 Agosto 2026 01:00 tempo osservato: Sereno Sereno 16 33 1027 vento: Nord NO 11.1
31 Agosto 2026 00:30 tempo osservato: Sereno Sereno 16 33 1028 vento: Nord O/NO 9.3
31 Agosto 2026 00:00 tempo osservato: Sereno Sereno 16 33 1028 vento: Nord O/NO 11.1
30 Agosto 2026 23:30 tempo osservato: Sereno Sereno 16 33 1028 vento: Nord O/NO 9.3
30 Agosto 2026 23:00 tempo osservato: Sereno Sereno 16 33 1028 vento: Nord O/NO 11.1
30 Agosto 2026 22:30 tempo osservato: Sereno Sereno 16 33 1028 vento: Nord NO 11.1
30 Agosto 2026 22:00 tempo osservato: Sereno Sereno 16 33 1028 vento: Nord O/NO 11.1
30 Agosto 2026 21:30 tempo osservato: Sereno Sereno 17 31 1028 vento: Nord O/NO 13
30 Agosto 2026 21:00 tempo osservato: Sereno Sereno 17 31 1027 vento: Nord O/NO 11.1
30 Agosto 2026 20:30 tempo osservato: Sereno Sereno 16 33 1027 vento: Nord NO 9.3
30 Agosto 2026 20:00 tempo osservato: Sereno Sereno 17 31 1027 vento: Nord NO 11.1
30 Agosto 2026 19:30 tempo osservato: Sereno Sereno 18 29 1027 vento: Nord O/NO 13
30 Agosto 2026 19:00 tempo osservato: Sereno Sereno 18 29 1026 vento: Nord NO 11.1
30 Agosto 2026 18:30 tempo osservato: Sereno Sereno 19 27 1026 vento: Nord NO 13
30 Agosto 2026 18:00 tempo osservato: Sereno Sereno 19 27 1026 vento: Nord NO 13
30 Agosto 2026 17:30 tempo osservato: Sereno Sereno 20 26 1026 vento: Nord N/NO 9.3
30 Agosto 2026 17:00 tempo osservato: Sereno Sereno 20 26 1025 vento: Nord N/NO 11.1
30 Agosto 2026 16:30 tempo osservato: Sereno Sereno 21 24 1025 vento: Nord N/NO 13
30 Agosto 2026 16:00 tempo osservato: Sereno Sereno 21 24 1025 vento: Nord N 7.4
30 Agosto 2026 15:30 tempo osservato: Sereno Sereno 22 24 1025 vento: Nord N 7.4
30 Agosto 2026 15:00 tempo osservato: Sereno Sereno 21 24 1025 vento: Nord N 9.3
30 Agosto 2026 14:30 tempo osservato: Sereno Sereno 22 24 1026 vento: Nord O 9.3
30 Agosto 2026 14:00 tempo osservato: Sereno Sereno 21 26 1026 vento: Nord N/NO 9.3
30 Agosto 2026 13:30 tempo osservato: Sereno Sereno 21 26 1026 vento: Nord N 9.3
30 Agosto 2026 13:00 tempo osservato: Sereno Sereno 20 28 1027 vento: Nord N 9.3
30 Agosto 2026 12:30 tempo osservato: Sereno Sereno 20 28 1027 vento: Nord N 11.1
30 Agosto 2026 12:00 tempo osservato: Sereno Sereno 19 29 1027 vento: Nord N 13
30 Agosto 2026 11:30 tempo osservato: Sereno Sereno 18 31 1027 vento: Nord O/NO 11.1
30 Agosto 2026 11:00 tempo osservato: Sereno Sereno 18 31 1028 vento: Nord O/NO 14.8
30 Agosto 2026 10:30 tempo osservato: Sereno Sereno 18 34 1028 vento: Nord O/NO 16.7
30 Agosto 2026 10:00 tempo osservato: Sereno Sereno 17 33 1028 vento: Nord O/NO 18.5
30 Agosto 2026 09:30 tempo osservato: Sereno Sereno 16 38 1028 vento: Nord O/NO 18.5
30 Agosto 2026 09:00 tempo osservato: Sereno Sereno 16 36 1028 vento: Nord O/NO 18.5
30 Agosto 2026 08:30 tempo osservato: Sereno Sereno 14 44 1028 vento: Nord O 11.1
30 Agosto 2026 08:00 tempo osservato: Sereno Sereno 13 43 1027 vento: Nord O/NO 11.1